sensor_id;sensor_type;location;lat;lon;timestamp;P1;durP1;ratioP1;P2;durP2;ratioP2
38397;SDS011;24179;52.094;4.408;2022-07-21T00:02:54;22.90;;;19.57;;
38397;SDS011;24179;52.094;4.408;2022-07-21T00:05:55;28.38;;;19.02;;
38397;SDS011;24179;52.094;4.408;2022-07-21T00:08:56;23.48;;;19.35;;
38397;SDS011;24179;52.094;4.408;2022-07-21T00:11:57;26.73;;;20.27;;
38397;SDS011;24179;52.094;4.408;2022-07-21T00:14:57;25.80;;;19.00;;
38397;SDS011;24179;52.094;4.408;2022-07-21T00:17:58;22.87;;;19.07;;
38397;SDS011;24179;52.094;4.408;2022-07-21T00:20:59;29.08;;;20.63;;
38397;SDS011;24179;52.094;4.408;2022-07-21T00:24:00;25.52;;;20.67;;
38397;SDS011;24179;52.094;4.408;2022-07-21T00:27:01;25.55;;;20.08;;
38397;SDS011;24179;52.094;4.408;2022-07-21T00:30:03;24.53;;;19.33;;
38397;SDS011;24179;52.094;4.408;2022-07-21T00:33:05;24.80;;;19.02;;
38397;SDS011;24179;52.094;4.408;2022-07-21T00:36:06;24.17;;;19.37;;
38397;SDS011;24179;52.094;4.408;2022-07-21T00:39:07;25.27;;;19.52;;
38397;SDS011;24179;52.094;4.408;2022-07-21T00:42:07;22.97;;;19.67;;
38397;SDS011;24179;52.094;4.408;2022-07-21T00:45:08;25.57;;;21.47;;
38397;SDS011;24179;52.094;4.408;2022-07-21T00:48:09;28.50;;;20.60;;
38397;SDS011;24179;52.094;4.408;2022-07-21T00:51:10;27.03;;;21.87;;
38397;SDS011;24179;52.094;4.408;2022-07-21T00:54:11;28.97;;;21.20;;
38397;SDS011;24179;52.094;4.408;2022-07-21T00:57:12;27.63;;;21.35;;
38397;SDS011;24179;52.094;4.408;2022-07-21T01:03:16;27.77;;;21.90;;
38397;SDS011;24179;52.094;4.408;2022-07-21T01:06:17;28.83;;;23.53;;
38397;SDS011;24179;52.094;4.408;2022-07-21T01:09:17;29.33;;;21.70;;
38397;SDS011;24179;52.094;4.408;2022-07-21T01:12:18;28.37;;;22.10;;
38397;SDS011;24179;52.094;4.408;2022-07-21T01:15:19;32.15;;;23.38;;
38397;SDS011;24179;52.094;4.408;2022-07-21T01:18:20;31.63;;;25.67;;
38397;SDS011;24179;52.094;4.408;2022-07-21T01:21:34;29.23;;;23.83;;
38397;SDS011;24179;52.094;4.408;2022-07-21T01:24:39;27.52;;;23.05;;
38397;SDS011;24179;52.094;4.408;2022-07-21T01:27:39;31.83;;;24.43;;
38397;SDS011;24179;52.094;4.408;2022-07-21T01:30:40;32.40;;;24.17;;
38397;SDS011;24179;52.094;4.408;2022-07-21T01:33:40;30.27;;;23.50;;
38397;SDS011;24179;52.094;4.408;2022-07-21T01:36:42;28.50;;;22.45;;
38397;SDS011;24179;52.094;4.408;2022-07-21T01:39:43;31.03;;;24.17;;
38397;SDS011;24179;52.094;4.408;2022-07-21T01:43:03;32.75;;;23.60;;
38397;SDS011;24179;52.094;4.408;2022-07-21T01:46:04;29.08;;;23.00;;
38397;SDS011;24179;52.094;4.408;2022-07-21T01:49:05;30.57;;;24.07;;
38397;SDS011;24179;52.094;4.408;2022-07-21T01:55:07;38.23;;;25.63;;
38397;SDS011;24179;52.094;4.408;2022-07-21T01:58:07;33.60;;;25.33;;
38397;SDS011;24179;52.094;4.408;2022-07-21T02:01:08;34.83;;;26.67;;
38397;SDS011;24179;52.094;4.408;2022-07-21T02:04:09;32.30;;;25.30;;
38397;SDS011;24179;52.094;4.408;2022-07-21T02:07:09;31.47;;;25.57;;
38397;SDS011;24179;52.094;4.408;2022-07-21T02:10:10;31.63;;;24.03;;
38397;SDS011;24179;52.094;4.408;2022-07-21T02:13:10;29.17;;;24.53;;
38397;SDS011;24179;52.094;4.408;2022-07-21T02:16:11;37.13;;;27.30;;
38397;SDS011;24179;52.094;4.408;2022-07-21T02:19:12;32.33;;;26.43;;
38397;SDS011;24179;52.094;4.408;2022-07-21T02:22:13;35.67;;;26.83;;
38397;SDS011;24179;52.094;4.408;2022-07-21T02:25:14;35.53;;;27.37;;
38397;SDS011;24179;52.094;4.408;2022-07-21T02:28:14;32.88;;;26.70;;
38397;SDS011;24179;52.094;4.408;2022-07-21T02:31:15;36.83;;;29.23;;
38397;SDS011;24179;52.094;4.408;2022-07-21T02:34:16;38.60;;;28.43;;
38397;SDS011;24179;52.094;4.408;2022-07-21T02:37:16;36.73;;;28.07;;
38397;SDS011;24179;52.094;4.408;2022-07-21T02:40:17;39.47;;;29.40;;
38397;SDS011;24179;52.094;4.408;2022-07-21T02:43:17;36.57;;;28.40;;
38397;SDS011;24179;52.094;4.408;2022-07-21T02:46:18;38.63;;;29.73;;
38397;SDS011;24179;52.094;4.408;2022-07-21T02:49:19;36.80;;;28.90;;
38397;SDS011;24179;52.094;4.408;2022-07-21T02:52:20;39.67;;;29.15;;
38397;SDS011;24179;52.094;4.408;2022-07-21T02:55:20;39.87;;;30.13;;
38397;SDS011;24179;52.094;4.408;2022-07-21T02:58:22;44.57;;;29.63;;
38397;SDS011;24179;52.094;4.408;2022-07-21T03:01:27;37.65;;;30.25;;
38397;SDS011;24179;52.094;4.408;2022-07-21T03:04:29;42.40;;;30.85;;
38397;SDS011;24179;52.094;4.408;2022-07-21T03:07:29;37.83;;;29.70;;
38397;SDS011;24179;52.094;4.408;2022-07-21T03:10:30;43.50;;;30.43;;
38397;SDS011;24179;52.094;4.408;2022-07-21T03:13:31;39.10;;;27.97;;
38397;SDS011;24179;52.094;4.408;2022-07-21T03:16:33;37.13;;;27.13;;
38397;SDS011;24179;52.094;4.408;2022-07-21T03:19:33;38.83;;;28.55;;
38397;SDS011;24179;52.094;4.408;2022-07-21T03:22:34;37.47;;;28.53;;
38397;SDS011;24179;52.094;4.408;2022-07-21T03:25:34;36.20;;;26.90;;
38397;SDS011;24179;52.094;4.408;2022-07-21T03:28:35;41.73;;;29.03;;
38397;SDS011;24179;52.094;4.408;2022-07-21T03:31:36;40.47;;;28.02;;
38397;SDS011;24179;52.094;4.408;2022-07-21T03:34:37;40.83;;;30.60;;
38397;SDS011;24179;52.094;4.408;2022-07-21T03:37:45;39.67;;;28.17;;
38397;SDS011;24179;52.094;4.408;2022-07-21T03:40:48;44.77;;;32.23;;
38397;SDS011;24179;52.094;4.408;2022-07-21T03:43:49;42.70;;;29.97;;
38397;SDS011;24179;52.094;4.408;2022-07-21T03:46:49;43.17;;;30.10;;
38397;SDS011;24179;52.094;4.408;2022-07-21T03:49:50;47.93;;;30.93;;
38397;SDS011;24179;52.094;4.408;2022-07-21T03:52:50;40.33;;;30.17;;
38397;SDS011;24179;52.094;4.408;2022-07-21T03:55:51;42.73;;;31.67;;
38397;SDS011;24179;52.094;4.408;2022-07-21T03:58:52;44.03;;;29.87;;
38397;SDS011;24179;52.094;4.408;2022-07-21T04:01:52;41.27;;;29.87;;
38397;SDS011;24179;52.094;4.408;2022-07-21T04:04:53;40.90;;;27.53;;
38397;SDS011;24179;52.094;4.408;2022-07-21T04:10:55;44.37;;;28.80;;
38397;SDS011;24179;52.094;4.408;2022-07-21T04:13:58;42.92;;;28.65;;
38397;SDS011;24179;52.094;4.408;2022-07-21T04:16:59;41.03;;;28.52;;
38397;SDS011;24179;52.094;4.408;2022-07-21T04:20:00;41.87;;;28.10;;
38397;SDS011;24179;52.094;4.408;2022-07-21T04:23:01;42.40;;;28.42;;
38397;SDS011;24179;52.094;4.408;2022-07-21T04:26:02;66.80;;;31.67;;
38397;SDS011;24179;52.094;4.408;2022-07-21T04:29:03;58.07;;;30.63;;
38397;SDS011;24179;52.094;4.408;2022-07-21T04:32:03;56.60;;;29.10;;
38397;SDS011;24179;52.094;4.408;2022-07-21T04:35:04;68.43;;;31.13;;
38397;SDS011;24179;52.094;4.408;2022-07-21T04:41:08;53.58;;;30.42;;
38397;SDS011;24179;52.094;4.408;2022-07-21T04:44:09;66.60;;;31.87;;
38397;SDS011;24179;52.094;4.408;2022-07-21T04:47:09;64.47;;;31.37;;
38397;SDS011;24179;52.094;4.408;2022-07-21T04:50:10;59.53;;;30.40;;
38397;SDS011;24179;52.094;4.408;2022-07-21T04:53:11;63.25;;;30.92;;
38397;SDS011;24179;52.094;4.408;2022-07-21T04:56:11;68.70;;;29.67;;
38397;SDS011;24179;52.094;4.408;2022-07-21T04:59:12;54.23;;;29.03;;
38397;SDS011;24179;52.094;4.408;2022-07-21T05:02:12;60.10;;;32.47;;
38397;SDS011;24179;52.094;4.408;2022-07-21T05:05:13;69.07;;;30.87;;
38397;SDS011;24179;52.094;4.408;2022-07-21T05:08:14;57.50;;;29.65;;
38397;SDS011;24179;52.094;4.408;2022-07-21T05:11:15;62.10;;;31.10;;
38397;SDS011;24179;52.094;4.408;2022-07-21T05:14:16;54.47;;;32.93;;
38397;SDS011;24179;52.094;4.408;2022-07-21T05:17:17;59.53;;;32.03;;
38397;SDS011;24179;52.094;4.408;2022-07-21T05:20:19;59.30;;;29.23;;
38397;SDS011;24179;52.094;4.408;2022-07-21T05:23:19;68.37;;;32.43;;
38397;SDS011;24179;52.094;4.408;2022-07-21T05:26:20;63.57;;;32.53;;
38397;SDS011;24179;52.094;4.408;2022-07-21T05:29:21;51.95;;;28.08;;
38397;SDS011;24179;52.094;4.408;2022-07-21T05:32:21;62.93;;;31.33;;
38397;SDS011;24179;52.094;4.408;2022-07-21T05:35:23;56.55;;;30.88;;
38397;SDS011;24179;52.094;4.408;2022-07-21T05:38:24;63.50;;;33.00;;
38397;SDS011;24179;52.094;4.408;2022-07-21T05:41:24;56.83;;;32.83;;
38397;SDS011;24179;52.094;4.408;2022-07-21T05:44:25;72.30;;;35.63;;
38397;SDS011;24179;52.094;4.408;2022-07-21T05:47:25;62.53;;;32.73;;
38397;SDS011;24179;52.094;4.408;2022-07-21T05:50:26;65.43;;;34.87;;
38397;SDS011;24179;52.094;4.408;2022-07-21T05:53:27;67.43;;;32.57;;
38397;SDS011;24179;52.094;4.408;2022-07-21T05:56:27;57.43;;;32.43;;
38397;SDS011;24179;52.094;4.408;2022-07-21T05:59:28;56.87;;;31.70;;
38397;SDS011;24179;52.094;4.408;2022-07-21T06:02:29;61.43;;;33.37;;
38397;SDS011;24179;52.094;4.408;2022-07-21T06:05:30;53.83;;;27.48;;
38397;SDS011;24179;52.094;4.408;2022-07-21T06:08:31;51.37;;;30.67;;
38397;SDS011;24179;52.094;4.408;2022-07-21T06:11:32;47.53;;;27.60;;
38397;SDS011;24179;52.094;4.408;2022-07-21T06:14:32;43.83;;;24.37;;
38397;SDS011;24179;52.094;4.408;2022-07-21T06:17:40;48.53;;;27.47;;
38397;SDS011;24179;52.094;4.408;2022-07-21T06:20:42;44.60;;;26.92;;
38397;SDS011;24179;52.094;4.408;2022-07-21T06:23:42;43.90;;;25.13;;
38397;SDS011;24179;52.094;4.408;2022-07-21T06:26:43;34.37;;;23.50;;
38397;SDS011;24179;52.094;4.408;2022-07-21T06:29:43;38.27;;;24.37;;
38397;SDS011;24179;52.094;4.408;2022-07-21T06:32:44;48.03;;;24.93;;
38397;SDS011;24179;52.094;4.408;2022-07-21T06:35:45;40.03;;;24.60;;
38397;SDS011;24179;52.094;4.408;2022-07-21T06:38:45;43.03;;;25.97;;
38397;SDS011;24179;52.094;4.408;2022-07-21T06:41:46;40.83;;;24.77;;
38397;SDS011;24179;52.094;4.408;2022-07-21T06:44:47;39.17;;;25.77;;
38397;SDS011;24179;52.094;4.408;2022-07-21T06:47:47;41.57;;;28.97;;
38397;SDS011;24179;52.094;4.408;2022-07-21T06:50:48;46.67;;;26.87;;
38397;SDS011;24179;52.094;4.408;2022-07-21T06:53:49;44.08;;;27.83;;
38397;SDS011;24179;52.094;4.408;2022-07-21T06:56:49;44.57;;;27.93;;
38397;SDS011;24179;52.094;4.408;2022-07-21T06:59:51;39.70;;;26.10;;
38397;SDS011;24179;52.094;4.408;2022-07-21T07:02:52;39.37;;;26.40;;
38397;SDS011;24179;52.094;4.408;2022-07-21T07:05:52;43.63;;;28.00;;
38397;SDS011;24179;52.094;4.408;2022-07-21T07:08:53;47.13;;;29.67;;
38397;SDS011;24179;52.094;4.408;2022-07-21T07:11:54;56.30;;;30.63;;
38397;SDS011;24179;52.094;4.408;2022-07-21T07:15:02;56.42;;;32.45;;
38397;SDS011;24179;52.094;4.408;2022-07-21T07:18:03;84.28;;;38.00;;
38397;SDS011;24179;52.094;4.408;2022-07-21T07:21:04;70.67;;;37.90;;
38397;SDS011;24179;52.094;4.408;2022-07-21T07:24:05;69.47;;;38.53;;
38397;SDS011;24179;52.094;4.408;2022-07-21T07:27:05;80.90;;;35.07;;
38397;SDS011;24179;52.094;4.408;2022-07-21T07:30:06;52.27;;;30.77;;
38397;SDS011;24179;52.094;4.408;2022-07-21T07:33:07;56.83;;;32.80;;
38397;SDS011;24179;52.094;4.408;2022-07-21T07:36:12;73.65;;;36.13;;
38397;SDS011;24179;52.094;4.408;2022-07-21T07:39:13;110.82;;;49.40;;
38397;SDS011;24179;52.094;4.408;2022-07-21T07:42:15;71.10;;;35.08;;
38397;SDS011;24179;52.094;4.408;2022-07-21T07:45:16;62.85;;;31.92;;
38397;SDS011;24179;52.094;4.408;2022-07-21T07:48:17;88.90;;;42.47;;
38397;SDS011;24179;52.094;4.408;2022-07-21T07:51:17;68.80;;;37.73;;
38397;SDS011;24179;52.094;4.408;2022-07-21T07:54:18;47.80;;;30.10;;
38397;SDS011;24179;52.094;4.408;2022-07-21T07:57:18;54.30;;;29.17;;
38397;SDS011;24179;52.094;4.408;2022-07-21T08:00:19;54.77;;;29.20;;
38397;SDS011;24179;52.094;4.408;2022-07-21T08:03:21;48.65;;;27.10;;
38397;SDS011;24179;52.094;4.408;2022-07-21T08:06:22;43.85;;;26.98;;
38397;SDS011;24179;52.094;4.408;2022-07-21T08:09:23;46.70;;;29.20;;
38397;SDS011;24179;52.094;4.408;2022-07-21T08:12:23;38.23;;;23.97;;
38397;SDS011;24179;52.094;4.408;2022-07-21T08:15:25;41.67;;;24.83;;
38397;SDS011;24179;52.094;4.408;2022-07-21T08:18:25;54.03;;;28.73;;
38397;SDS011;24179;52.094;4.408;2022-07-21T08:24:30;52.10;;;25.80;;
38397;SDS011;24179;52.094;4.408;2022-07-21T08:27:31;54.03;;;27.53;;
38397;SDS011;24179;52.094;4.408;2022-07-21T08:30:31;42.57;;;25.03;;
38397;SDS011;24179;52.094;4.408;2022-07-21T08:33:32;41.23;;;23.63;;
38397;SDS011;24179;52.094;4.408;2022-07-21T08:36:33;44.07;;;25.90;;
38397;SDS011;24179;52.094;4.408;2022-07-21T08:39:33;48.07;;;23.03;;
38397;SDS011;24179;52.094;4.408;2022-07-21T08:42:34;48.47;;;26.13;;
38397;SDS011;24179;52.094;4.408;2022-07-21T08:45:36;33.30;;;18.60;;
38397;SDS011;24179;52.094;4.408;2022-07-21T08:48:37;32.00;;;19.67;;
38397;SDS011;24179;52.094;4.408;2022-07-21T08:51:38;38.63;;;21.43;;
38397;SDS011;24179;52.094;4.408;2022-07-21T08:54:38;32.80;;;18.50;;
38397;SDS011;24179;52.094;4.408;2022-07-21T08:57:39;27.47;;;16.80;;
38397;SDS011;24179;52.094;4.408;2022-07-21T09:00:44;28.65;;;16.13;;
38397;SDS011;24179;52.094;4.408;2022-07-21T09:03:46;27.00;;;15.75;;
38397;SDS011;24179;52.094;4.408;2022-07-21T09:07:20;19.83;;;13.77;;
38397;SDS011;24179;52.094;4.408;2022-07-21T09:10:15;19.45;;;13.38;;
38397;SDS011;24179;52.094;4.408;2022-07-21T09:13:20;21.58;;;13.05;;
38397;SDS011;24179;52.094;4.408;2022-07-21T09:16:31;17.10;;;10.17;;
38397;SDS011;24179;52.094;4.408;2022-07-21T09:19:44;12.90;;;9.02;;
38397;SDS011;24179;52.094;4.408;2022-07-21T09:23:03;11.90;;;9.68;;
38397;SDS011;24179;52.094;4.408;2022-07-21T09:26:06;12.52;;;8.25;;
38397;SDS011;24179;52.094;4.408;2022-07-21T09:29:10;16.97;;;9.40;;
38397;SDS011;24179;52.094;4.408;2022-07-21T09:32:30;15.15;;;10.15;;
38397;SDS011;24179;52.094;4.408;2022-07-21T09:35:31;19.58;;;12.02;;
38397;SDS011;24179;52.094;4.408;2022-07-21T09:38:33;19.50;;;13.47;;
38397;SDS011;24179;52.094;4.408;2022-07-21T09:41:36;17.77;;;12.65;;
38397;SDS011;24179;52.094;4.408;2022-07-21T09:44:36;16.83;;;12.17;;
38397;SDS011;24179;52.094;4.408;2022-07-21T09:47:37;22.57;;;13.87;;
38397;SDS011;24179;52.094;4.408;2022-07-21T09:50:39;40.67;;;15.82;;
38397;SDS011;24179;52.094;4.408;2022-07-21T09:53:48;27.55;;;17.48;;
38397;SDS011;24179;52.094;4.408;2022-07-21T09:56:50;27.83;;;16.83;;
38397;SDS011;24179;52.094;4.408;2022-07-21T09:59:52;25.58;;;15.23;;
38397;SDS011;24179;52.094;4.408;2022-07-21T10:02:54;21.92;;;12.45;;
38397;SDS011;24179;52.094;4.408;2022-07-21T10:05:56;23.27;;;10.25;;
38397;SDS011;24179;52.094;4.408;2022-07-21T10:08:57;16.40;;;9.63;;
38397;SDS011;24179;52.094;4.408;2022-07-21T10:12:02;23.48;;;11.85;;
38397;SDS011;24179;52.094;4.408;2022-07-21T10:15:03;17.30;;;10.23;;
38397;SDS011;24179;52.094;4.408;2022-07-21T10:18:04;17.00;;;9.85;;
38397;SDS011;24179;52.094;4.408;2022-07-21T10:21:10;18.17;;;9.48;;
38397;SDS011;24179;52.094;4.408;2022-07-21T10:24:16;14.38;;;6.97;;
38397;SDS011;24179;52.094;4.408;2022-07-21T10:27:17;10.32;;;6.40;;
38397;SDS011;24179;52.094;4.408;2022-07-21T10:30:17;14.83;;;7.13;;
38397;SDS011;24179;52.094;4.408;2022-07-21T10:34:02;20.33;;;8.30;;
38397;SDS011;24179;52.094;4.408;2022-07-21T10:37:02;16.45;;;7.25;;
38397;SDS011;24179;52.094;4.408;2022-07-21T10:40:03;13.70;;;7.40;;
38397;SDS011;24179;52.094;4.408;2022-07-21T10:46:32;14.87;;;6.07;;
38397;SDS011;24179;52.094;4.408;2022-07-21T10:52:57;16.33;;;5.13;;
38397;SDS011;24179;52.094;4.408;2022-07-21T10:55:59;17.80;;;6.32;;
38397;SDS011;24179;52.094;4.408;2022-07-21T10:59:00;16.05;;;5.68;;
38397;SDS011;24179;52.094;4.408;2022-07-21T11:02:47;15.10;;;5.78;;
38397;SDS011;24179;52.094;4.408;2022-07-21T11:05:26;17.25;;;7.30;;
38397;SDS011;24179;52.094;4.408;2022-07-21T11:08:39;15.13;;;6.18;;
38397;SDS011;24179;52.094;4.408;2022-07-21T11:15:00;22.40;;;8.73;;
38397;SDS011;24179;52.094;4.408;2022-07-21T11:18:01;18.53;;;7.80;;
38397;SDS011;24179;52.094;4.408;2022-07-21T11:21:02;20.73;;;6.70;;
38397;SDS011;24179;52.094;4.408;2022-07-21T11:24:03;13.10;;;5.43;;
38397;SDS011;24179;52.094;4.408;2022-07-21T11:27:05;13.65;;;6.43;;
38397;SDS011;24179;52.094;4.408;2022-07-21T11:30:10;17.30;;;7.35;;
38397;SDS011;24179;52.094;4.408;2022-07-21T11:33:20;14.43;;;5.80;;
38397;SDS011;24179;52.094;4.408;2022-07-21T11:36:29;15.93;;;6.70;;
38397;SDS011;24179;52.094;4.408;2022-07-21T11:39:31;17.27;;;6.15;;
38397;SDS011;24179;52.094;4.408;2022-07-21T11:42:32;19.10;;;6.15;;
38397;SDS011;24179;52.094;4.408;2022-07-21T11:45:33;24.42;;;7.20;;
38397;SDS011;24179;52.094;4.408;2022-07-21T11:48:34;20.47;;;7.53;;
38397;SDS011;24179;52.094;4.408;2022-07-21T11:51:34;18.53;;;6.30;;
38397;SDS011;24179;52.094;4.408;2022-07-21T11:54:36;13.97;;;4.80;;
38397;SDS011;24179;52.094;4.408;2022-07-21T11:57:44;25.55;;;6.40;;
38397;SDS011;24179;52.094;4.408;2022-07-21T12:00:46;14.50;;;4.75;;
38397;SDS011;24179;52.094;4.408;2022-07-21T12:03:49;24.10;;;6.50;;
38397;SDS011;24179;52.094;4.408;2022-07-21T12:09:55;15.30;;;4.30;;
38397;SDS011;24179;52.094;4.408;2022-07-21T12:13:01;12.30;;;4.03;;
38397;SDS011;24179;52.094;4.408;2022-07-21T12:16:04;12.10;;;3.45;;
38397;SDS011;24179;52.094;4.408;2022-07-21T12:19:12;13.43;;;3.30;;
38397;SDS011;24179;52.094;4.408;2022-07-21T12:22:15;10.95;;;3.05;;
38397;SDS011;24179;52.094;4.408;2022-07-21T12:28:18;16.15;;;3.53;;
38397;SDS011;24179;52.094;4.408;2022-07-21T12:31:19;17.43;;;3.70;;
38397;SDS011;24179;52.094;4.408;2022-07-21T12:37:43;19.50;;;4.03;;
38397;SDS011;24179;52.094;4.408;2022-07-21T12:41:01;14.95;;;4.05;;
38397;SDS011;24179;52.094;4.408;2022-07-21T12:44:02;17.42;;;3.60;;
38397;SDS011;24179;52.094;4.408;2022-07-21T12:47:13;14.77;;;3.35;;
38397;SDS011;24179;52.094;4.408;2022-07-21T12:50:15;14.65;;;3.00;;
38397;SDS011;24179;52.094;4.408;2022-07-21T12:53:16;11.57;;;3.20;;
38397;SDS011;24179;52.094;4.408;2022-07-21T12:56:20;20.53;;;3.70;;
38397;SDS011;24179;52.094;4.408;2022-07-21T12:59:26;21.08;;;4.43;;
38397;SDS011;24179;52.094;4.408;2022-07-21T13:02:26;22.27;;;4.27;;
38397;SDS011;24179;52.094;4.408;2022-07-21T13:05:29;22.95;;;3.70;;
38397;SDS011;24179;52.094;4.408;2022-07-21T13:08:30;18.97;;;4.03;;
38397;SDS011;24179;52.094;4.408;2022-07-21T13:11:31;22.50;;;4.63;;
38397;SDS011;24179;52.094;4.408;2022-07-21T13:14:31;11.90;;;2.80;;
38397;SDS011;24179;52.094;4.408;2022-07-21T13:17:32;23.47;;;4.63;;
38397;SDS011;24179;52.094;4.408;2022-07-21T13:20:33;18.80;;;4.00;;
38397;SDS011;24179;52.094;4.408;2022-07-21T13:23:34;20.53;;;4.33;;
38397;SDS011;24179;52.094;4.408;2022-07-21T13:26:34;21.95;;;4.72;;
38397;SDS011;24179;52.094;4.408;2022-07-21T13:29:35;21.27;;;4.33;;
38397;SDS011;24179;52.094;4.408;2022-07-21T13:32:36;17.98;;;4.10;;
38397;SDS011;24179;52.094;4.408;2022-07-21T13:35:37;19.33;;;4.53;;
38397;SDS011;24179;52.094;4.408;2022-07-21T13:38:38;18.00;;;4.63;;
38397;SDS011;24179;52.094;4.408;2022-07-21T13:41:39;22.70;;;5.97;;
38397;SDS011;24179;52.094;4.408;2022-07-21T13:44:40;25.92;;;5.70;;
38397;SDS011;24179;52.094;4.408;2022-07-21T13:47:40;18.70;;;3.80;;
38397;SDS011;24179;52.094;4.408;2022-07-21T13:50:42;22.95;;;4.57;;
38397;SDS011;24179;52.094;4.408;2022-07-21T13:53:43;34.17;;;5.57;;
38397;SDS011;24179;52.094;4.408;2022-07-21T13:56:45;23.50;;;4.97;;
38397;SDS011;24179;52.094;4.408;2022-07-21T13:59:46;21.75;;;4.15;;
38397;SDS011;24179;52.094;4.408;2022-07-21T14:02:47;22.70;;;4.80;;
38397;SDS011;24179;52.094;4.408;2022-07-21T14:05:48;23.23;;;5.90;;
38397;SDS011;24179;52.094;4.408;2022-07-21T14:08:48;28.80;;;5.63;;
38397;SDS011;24179;52.094;4.408;2022-07-21T14:11:49;24.30;;;4.90;;
38397;SDS011;24179;52.094;4.408;2022-07-21T14:14:49;23.17;;;5.50;;
38397;SDS011;24179;52.094;4.408;2022-07-21T14:17:51;27.70;;;5.22;;
38397;SDS011;24179;52.094;4.408;2022-07-21T14:20:52;21.03;;;4.67;;
38397;SDS011;24179;52.094;4.408;2022-07-21T14:23:52;30.17;;;4.97;;
38397;SDS011;24179;52.094;4.408;2022-07-21T14:27:12;17.75;;;4.72;;
38397;SDS011;24179;52.094;4.408;2022-07-21T14:30:12;18.00;;;4.43;;
38397;SDS011;24179;52.094;4.408;2022-07-21T14:33:13;26.42;;;5.47;;
38397;SDS011;24179;52.094;4.408;2022-07-21T14:36:14;26.40;;;5.77;;
38397;SDS011;24179;52.094;4.408;2022-07-21T14:39:15;21.67;;;4.60;;
38397;SDS011;24179;52.094;4.408;2022-07-21T14:42:15;14.77;;;4.00;;
38397;SDS011;24179;52.094;4.408;2022-07-21T14:45:17;25.98;;;5.57;;
38397;SDS011;24179;52.094;4.408;2022-07-21T14:48:18;24.48;;;5.57;;
38397;SDS011;24179;52.094;4.408;2022-07-21T14:51:18;17.00;;;4.30;;
38397;SDS011;24179;52.094;4.408;2022-07-21T14:54:19;27.30;;;4.88;;
38397;SDS011;24179;52.094;4.408;2022-07-21T14:57:20;27.00;;;5.03;;
38397;SDS011;24179;52.094;4.408;2022-07-21T15:00:21;24.20;;;5.77;;
38397;SDS011;24179;52.094;4.408;2022-07-21T15:03:23;20.48;;;4.60;;
38397;SDS011;24179;52.094;4.408;2022-07-21T15:06:25;16.52;;;3.35;;
38397;SDS011;24179;52.094;4.408;2022-07-21T15:09:25;19.47;;;4.10;;
38397;SDS011;24179;52.094;4.408;2022-07-21T15:12:26;16.03;;;3.63;;
38397;SDS011;24179;52.094;4.408;2022-07-21T15:15:26;15.57;;;3.97;;
38397;SDS011;24179;52.094;4.408;2022-07-21T15:18:27;15.40;;;3.63;;
38397;SDS011;24179;52.094;4.408;2022-07-21T15:21:28;19.33;;;4.10;;
38397;SDS011;24179;52.094;4.408;2022-07-21T15:24:29;12.13;;;3.35;;
38397;SDS011;24179;52.094;4.408;2022-07-21T15:27:29;19.07;;;3.70;;
38397;SDS011;24179;52.094;4.408;2022-07-21T15:30:30;20.70;;;4.57;;
38397;SDS011;24179;52.094;4.408;2022-07-21T15:33:31;13.88;;;4.10;;
38397;SDS011;24179;52.094;4.408;2022-07-21T15:36:32;20.37;;;4.17;;
38397;SDS011;24179;52.094;4.408;2022-07-21T15:39:32;22.33;;;4.47;;
38397;SDS011;24179;52.094;4.408;2022-07-21T15:42:33;15.67;;;4.33;;
38397;SDS011;24179;52.094;4.408;2022-07-21T15:45:35;18.58;;;4.20;;
38397;SDS011;24179;52.094;4.408;2022-07-21T15:48:36;19.27;;;4.57;;
38397;SDS011;24179;52.094;4.408;2022-07-21T15:51:37;22.23;;;4.20;;
38397;SDS011;24179;52.094;4.408;2022-07-21T15:54:37;19.37;;;5.33;;
38397;SDS011;24179;52.094;4.408;2022-07-21T15:57:40;23.60;;;5.15;;
38397;SDS011;24179;52.094;4.408;2022-07-21T16:00:41;25.80;;;4.47;;
38397;SDS011;24179;52.094;4.408;2022-07-21T16:03:42;17.47;;;4.10;;
38397;SDS011;24179;52.094;4.408;2022-07-21T16:06:43;16.52;;;4.05;;
38397;SDS011;24179;52.094;4.408;2022-07-21T16:09:43;16.43;;;4.13;;
38397;SDS011;24179;52.094;4.408;2022-07-21T16:12:46;14.27;;;3.85;;
38397;SDS011;24179;52.094;4.408;2022-07-21T16:15:46;22.90;;;3.67;;
38397;SDS011;24179;52.094;4.408;2022-07-21T16:18:48;19.07;;;4.07;;
38397;SDS011;24179;52.094;4.408;2022-07-21T16:21:50;17.00;;;3.75;;
38397;SDS011;24179;52.094;4.408;2022-07-21T16:24:52;21.00;;;3.78;;
38397;SDS011;24179;52.094;4.408;2022-07-21T16:27:53;11.07;;;3.80;;
38397;SDS011;24179;52.094;4.408;2022-07-21T16:30:56;16.58;;;3.88;;
38397;SDS011;24179;52.094;4.408;2022-07-21T16:33:57;18.87;;;4.07;;
38397;SDS011;24179;52.094;4.408;2022-07-21T16:36:57;16.37;;;4.13;;
38397;SDS011;24179;52.094;4.408;2022-07-21T16:39:58;20.17;;;4.53;;
38397;SDS011;24179;52.094;4.408;2022-07-21T16:42:59;20.93;;;3.90;;
38397;SDS011;24179;52.094;4.408;2022-07-21T16:45:59;14.13;;;4.03;;
38397;SDS011;24179;52.094;4.408;2022-07-21T16:49:00;20.02;;;4.20;;
38397;SDS011;24179;52.094;4.408;2022-07-21T16:52:01;21.10;;;3.73;;
38397;SDS011;24179;52.094;4.408;2022-07-21T16:55:02;15.23;;;3.72;;
38397;SDS011;24179;52.094;4.408;2022-07-21T16:58:03;13.27;;;3.58;;
38397;SDS011;24179;52.094;4.408;2022-07-21T17:01:04;15.48;;;3.20;;
38397;SDS011;24179;52.094;4.408;2022-07-21T17:04:05;16.15;;;3.35;;
38397;SDS011;24179;52.094;4.408;2022-07-21T17:07:06;18.15;;;4.18;;
38397;SDS011;24179;52.094;4.408;2022-07-21T17:10:07;10.82;;;3.80;;
38397;SDS011;24179;52.094;4.408;2022-07-21T17:13:08;19.52;;;4.35;;
38397;SDS011;24179;52.094;4.408;2022-07-21T17:16:09;17.53;;;5.07;;
38397;SDS011;24179;52.094;4.408;2022-07-21T17:19:10;22.95;;;5.78;;
38397;SDS011;24179;52.094;4.408;2022-07-21T17:22:11;15.33;;;4.67;;
38397;SDS011;24179;52.094;4.408;2022-07-21T17:25:11;20.50;;;4.83;;
38397;SDS011;24179;52.094;4.408;2022-07-21T17:28:12;22.00;;;5.97;;
38397;SDS011;24179;52.094;4.408;2022-07-21T17:31:14;35.80;;;5.68;;
38397;SDS011;24179;52.094;4.408;2022-07-21T17:34:15;19.65;;;4.70;;
38397;SDS011;24179;52.094;4.408;2022-07-21T17:37:16;18.13;;;4.30;;
38397;SDS011;24179;52.094;4.408;2022-07-21T17:40:16;22.40;;;3.93;;
38397;SDS011;24179;52.094;4.408;2022-07-21T17:43:17;21.00;;;4.93;;
38397;SDS011;24179;52.094;4.408;2022-07-21T17:46:18;21.20;;;4.60;;
38397;SDS011;24179;52.094;4.408;2022-07-21T17:49:18;17.40;;;4.50;;
38397;SDS011;24179;52.094;4.408;2022-07-21T17:52:19;15.23;;;5.23;;
38397;SDS011;24179;52.094;4.408;2022-07-21T17:55:20;16.37;;;4.40;;
38397;SDS011;24179;52.094;4.408;2022-07-21T17:58:20;17.30;;;4.38;;
38397;SDS011;24179;52.094;4.408;2022-07-21T18:01:39;19.15;;;4.57;;
38397;SDS011;24179;52.094;4.408;2022-07-21T18:04:40;12.03;;;4.23;;
38397;SDS011;24179;52.094;4.408;2022-07-21T18:07:41;15.27;;;4.67;;
38397;SDS011;24179;52.094;4.408;2022-07-21T18:10:41;15.73;;;4.10;;
38397;SDS011;24179;52.094;4.408;2022-07-21T18:13:42;13.03;;;3.77;;
38397;SDS011;24179;52.094;4.408;2022-07-21T18:19:46;14.20;;;3.47;;
38397;SDS011;24179;52.094;4.408;2022-07-21T18:22:47;13.57;;;3.22;;
38397;SDS011;24179;52.094;4.408;2022-07-21T18:28:49;15.25;;;3.72;;
38397;SDS011;24179;52.094;4.408;2022-07-21T18:31:50;20.20;;;4.20;;
38397;SDS011;24179;52.094;4.408;2022-07-21T18:34:50;21.50;;;4.30;;